Time;durP1;ratioP1;P1;durP2;ratioP2;P2;SDS_P1;SDS_P2;PMS_P1;PMS_P2;Temp;Humidity;BMP_temperature;BMP_pressure;BME280_temperature;BME280_humidity;BME280_pressure;Samples;Min_cycle;Max_cycle;Signal;HPM_P1;HPM_P2
2022/10/28 00:00:42;;;;;;;;;;;;;;;19.05;62.02;97823.50;4229527;28;5600;-80
2022/10/28 00:02:44;;;;;;;;;;;;;;;19.04;61.87;97831.75;4225904;28;5609;-79
2022/10/28 00:04:47;;;;;;;;;;;;;;;19.02;61.88;97829.28;4225176;28;5624;-80
2022/10/28 00:06:51;;;;;;;;;;;;;;;19.03;62.26;97828.25;4222725;28;5714;-78
2022/10/28 00:08:54;;;;;;;;;;;;;;;19.03;62.13;97835.47;4228516;28;5609;-79
2022/10/28 00:11:05;;;;;;;;;;;;;;;19.03;62.19;97838.97;4230446;28;5828;-79
2022/10/28 00:13:08;;;;;;;;;;;;;;;19.02;62.11;97842.69;4226282;28;5620;-79
2022/10/28 00:15:11;;;;;;;;;;;;;;;19.02;62.12;97840.00;4226919;28;5619;-79
2022/10/28 00:17:14;;;;;;;;;;;;;;;19.00;62.46;97842.09;4235932;28;5691;-79
2022/10/28 00:19:16;;;;;;;;;;;;;;;18.99;62.33;97839.63;4230243;28;5664;-79
2022/10/28 00:21:22;;;;;;;;;;;;;;;18.99;62.43;97845.00;4229168;28;5616;-79
2022/10/28 00:23:26;;;;;;;;;;;;;;;18.99;62.10;97840.44;4222458;28;5736;-79
2022/10/28 00:25:29;;;;;;;;;;;;;;;18.99;62.15;97845.81;4225766;28;5608;-78
2022/10/28 00:27:32;;;;;;;;;;;;;;;18.98;62.32;97844.16;4228430;28;5589;-80
2022/10/28 00:29:34;;;;;;;;;;;;;;;18.97;62.41;97844.41;4227012;28;5670;-79
2022/10/28 00:31:38;;;;;;;;;;;;;;;18.96;62.35;97848.94;4234706;28;5593;-80
2022/10/28 00:33:41;;;;;;;;;;;;;;;18.95;62.33;97841.94;4226018;28;5604;-79
2022/10/28 00:35:44;;;;;;;;;;;;;;;18.95;62.37;97841.94;4226887;28;6523;-79
2022/10/28 00:37:46;;;;;;;;;;;;;;;18.95;62.68;97841.94;4226968;28;5661;-78
2022/10/28 00:39:50;;;;;;;;;;;;;;;18.94;62.37;97848.34;4226412;28;5791;-79
2022/10/28 00:41:55;;;;;;;;;;;;;;;18.93;62.43;97843.22;4226551;28;5734;-79
2022/10/28 00:43:59;;;;;;;;;;;;;;;18.93;62.74;97845.88;4230626;28;5611;-80
2022/10/28 00:46:03;;;;;;;;;;;;;;;18.93;62.78;97844.03;4232344;28;5609;-78
2022/10/28 00:48:06;;;;;;;;;;;;;;;18.92;62.68;97842.38;4233055;28;5714;-79
2022/10/28 00:50:25;;;;;;;;;;;;;;;18.92;62.74;97838.88;4211886;28;5704;-79
2022/10/28 00:52:30;;;;;;;;;;;;;;;18.90;62.62;97841.75;4227878;28;5796;-80
2022/10/28 00:54:33;;;;;;;;;;;;;;;18.89;62.96;97842.81;4220682;28;5785;-79
2022/10/28 00:56:42;;;;;;;;;;;;;;;18.89;62.75;97845.50;4223056;28;5715;-79
2022/10/28 00:58:48;;;;;;;;;;;;;;;18.88;62.89;97833.13;4235116;28;5770;-78
2022/10/28 01:00:51;;;;;;;;;;;;;;;18.88;63.02;97833.94;4236191;28;5672;-78
2022/10/28 01:02:55;;;;;;;;;;;;;;;18.89;62.80;97834.78;4232262;28;5602;-79
2022/10/28 01:04:59;;;;;;;;;;;;;;;18.88;62.96;97833.13;4225447;28;5605;-78
2022/10/28 01:07:02;;;;;;;;;;;;;;;18.88;63.00;97835.81;4229020;28;5593;-79
2022/10/28 01:09:05;;;;;;;;;;;;;;;18.87;63.02;97831.50;4216805;28;5765;-79
2022/10/28 01:11:50;;;;;;;;;;;;;;;18.86;63.03;97830.69;4219869;28;5612;-80
2022/10/28 01:14:18;;;;;;;;;;;;;;;18.85;63.01;97833.59;4217003;28;5991;-79
2022/10/28 01:16:33;;;;;;;;;;;;;;;18.85;63.05;97838.94;4235830;28;5605;-78
2022/10/28 01:19:00;;;;;;;;;;;;;;;18.84;63.29;97842.66;4229816;28;5772;-78
2022/10/28 01:21:39;;;;;;;;;;;;;;;18.84;63.08;97848.03;4231678;28;5632;-79
2022/10/28 01:23:56;;;;;;;;;;;;;;;18.82;63.15;97844.75;4230105;28;5645;-78
2022/10/28 01:26:30;;;;;;;;;;;;;;;18.82;63.05;97844.75;4222331;28;5631;-78
2022/10/28 01:28:57;;;;;;;;;;;;;;;18.80;63.10;97844.13;4204864;28;5640;-78
2022/10/28 01:31:13;;;;;;;;;;;;;;;18.79;63.07;97845.16;4229771;28;5146;-79
2022/10/28 01:33:23;;;;;;;;;;;;;;;18.79;63.17;97845.16;4231317;28;5701;-79
2022/10/28 01:35:33;;;;;;;;;;;;;;;18.78;63.08;97839.00;4219319;28;5775;-78
2022/10/28 01:37:40;;;;;;;;;;;;;;;18.78;63.22;97846.19;4219576;28;5707;-78
2022/10/28 01:39:49;;;;;;;;;;;;;;;18.78;63.46;97840.84;4226886;28;5622;-78
2022/10/28 01:41:56;;;;;;;;;;;;;;;18.78;63.35;97832.81;4223527;28;5712;-78
2022/10/28 01:44:05;;;;;;;;;;;;;;;18.77;63.14;97833.84;4222000;28;6393;-78
2022/10/28 01:46:15;;;;;;;;;;;;;;;18.76;63.14;97833.03;4225746;28;5688;-78
2022/10/28 01:48:21;;;;;;;;;;;;;;;18.75;63.33;97838.63;4225551;28;5602;-78
2022/10/28 01:50:30;;;;;;;;;;;;;;;18.77;63.38;97839.22;4228920;28;6487;-79
2022/10/28 01:52:33;;;;;;;;;;;;;;;18.74;63.35;97827.09;4226307;28;5636;-79
2022/10/28 01:54:38;;;;;;;;;;;;;;;18.75;63.44;97828.72;4224377;28;5717;-79
2022/10/28 01:56:43;;;;;;;;;;;;;;;18.75;63.21;97831.41;4229106;28;5613;-79
2022/10/28 01:58:48;;;;;;;;;;;;;;;18.75;63.23;97833.25;4234769;28;5793;-78
2022/10/28 02:00:51;;;;;;;;;;;;;;;18.74;63.60;97840.47;4231217;28;5711;-78
2022/10/28 02:02:56;;;;;;;;;;;;;;;18.73;63.51;97829.97;4235925;28;5616;-78
2022/10/28 02:05:26;;;;;;;;;;;;;;;18.73;63.38;97838.84;4224610;28;5793;-79
2022/10/28 02:07:29;;;;;;;;;;;;;;;18.74;63.30;97842.34;4224929;28;5691;-79
2022/10/28 02:09:43;;;;;;;;;;;;;;;18.73;63.27;97835.34;4225191;28;5908;-79
2022/10/28 02:12:09;;;;;;;;;;;;;;;18.73;63.41;97840.69;4226893;28;5609;-79
2022/10/28 02:14:22;;;;;;;;;;;;;;;18.71;63.49;97843.59;4223039;28;5597;-79
2022/10/28 02:16:31;;;;;;;;;;;;;;;18.71;63.47;97837.44;4224984;28;5714;-79
2022/10/28 02:18:44;;;;;;;;;;;;;;;18.70;63.69;97833.94;4226208;28;5853;-80
2022/10/28 02:20:53;;;;;;;;;;;;;;;18.70;63.42;97831.25;4223456;28;5632;-79
2022/10/28 02:23:07;;;;;;;;;;;;;;;18.71;63.45;97832.06;4222723;28;5675;-79
2022/10/28 02:25:17;;;;;;;;;;;;;;;18.71;63.28;97830.22;4228231;28;5699;-80
2022/10/28 02:27:30;;;;;;;;;;;;;;;18.70;63.21;97828.56;4229797;28;5680;-79
2022/10/28 02:29:38;;;;;;;;;;;;;;;18.69;63.56;97832.28;4220891;28;5620;-79
2022/10/28 02:31:45;;;;;;;;;;;;;;;18.70;63.29;97833.13;4225131;28;5616;-79
2022/10/28 02:33:54;;;;;;;;;;;;;;;18.70;63.47;97825.91;4222444;28;5592;-79
2022/10/28 02:36:02;;;;;;;;;;;;;;;18.69;63.49;97818.91;4224530;28;5605;-79
2022/10/28 02:38:11;;;;;;;;;;;;;;;18.70;63.17;97820.53;4221055;28;5778;-79
2022/10/28 02:40:19;;;;;;;;;;;;;;;18.70;63.31;97809.00;4231518;28;7691;-79
2022/10/28 02:42:26;;;;;;;;;;;;;;;18.70;63.11;97809.81;4229058;28;5612;-78
2022/10/28 02:44:32;;;;;;;;;;;;;;;18.69;63.42;97812.69;4224988;28;5728;-79
2022/10/28 02:46:39;;;;;;;;;;;;;;;18.69;63.35;97812.69;4228460;28;7215;-79
2022/10/28 02:48:46;;;;;;;;;;;;;;;18.69;63.38;97810.00;4223823;28;5783;-79
2022/10/28 02:50:55;;;;;;;;;;;;;;;18.69;63.31;97810.00;4225382;28;5753;-79
2022/10/28 02:53:00;;;;;;;;;;;;;;;18.68;63.46;97817.22;4228266;28;5664;-80
2022/10/28 02:55:06;;;;;;;;;;;;;;;18.68;63.17;97821.78;4232954;28;5597;-79
2022/10/28 02:57:12;;;;;;;;;;;;;;;18.66;63.61;97823.84;4219197;28;5616;-79
2022/10/28 02:59:15;;;;;;;;;;;;;;;18.66;63.07;97823.84;4234786;28;5626;-80
2022/10/28 03:01:18;;;;;;;;;;;;;;;18.66;63.12;97827.34;4225148;28;5589;-80
2022/10/28 03:03:21;;;;;;;;;;;;;;;18.66;63.39;97815.81;4232623;28;5601;-79
2022/10/28 03:05:24;;;;;;;;;;;;;;;18.66;63.30;97813.16;4234835;28;5601;-80
2022/10/28 03:07:28;;;;;;;;;;;;;;;18.66;63.31;97815.81;4234356;28;5780;-79
2022/10/28 03:09:31;;;;;;;;;;;;;;;18.62;63.41;97813.56;4227388;28;5727;-79
2022/10/28 03:11:33;;;;;;;;;;;;;;;18.65;63.40;97822.22;4219015;28;5620;-79
2022/10/28 03:13:36;;;;;;;;;;;;;;;18.65;63.34;97820.38;4224770;28;5789;-79
2022/10/28 03:15:39;;;;;;;;;;;;;;;18.64;63.29;97821.41;4225201;28;5769;-79
2022/10/28 03:17:42;;;;;;;;;;;;;;;18.63;63.30;97815.19;4231426;28;5613;-79
2022/10/28 03:19:45;;;;;;;;;;;;;;;18.65;63.33;97824.91;4226826;28;5719;-79
2022/10/28 03:21:47;;;;;;;;;;;;;;;18.63;63.37;97819.72;4223407;28;5605;-80
2022/10/28 03:23:51;;;;;;;;;;;;;;;18.63;63.37;97817.06;4233748;28;5687;-81
2022/10/28 03:25:54;;;;;;;;;;;;;;;18.61;63.43;97811.91;4226802;28;5762;-79
2022/10/28 03:27:57;;;;;;;;;;;;;;;18.61;63.54;97811.91;4229368;28;5605;-79
2022/10/28 03:30:00;;;;;;;;;;;;;;;18.62;63.27;97802.84;4232593;28;5593;-79
2022/10/28 03:32:02;;;;;;;;;;;;;;;18.60;63.35;97799.56;4226586;28;5695;-79
2022/10/28 03:34:05;;;;;;;;;;;;;;;18.60;63.44;97802.25;4234211;28;5772;-79
2022/10/28 03:36:08;;;;;;;;;;;;;;;18.62;63.39;97804.72;4231289;28;5597;-80
2022/10/28 03:38:11;;;;;;;;;;;;;;;18.62;63.71;97802.03;4223249;28;6073;-79
2022/10/28 03:40:15;;;;;;;;;;;;;;;18.61;63.35;97811.91;4233647;28;5809;-79
2022/10/28 03:42:17;;;;;;;;;;;;;;;18.61;63.34;97803.88;4221518;28;5714;-79
2022/10/28 03:44:20;;;;;;;;;;;;;;;18.61;63.44;97800.41;4225224;28;5699;-80
2022/10/28 03:46:23;;;;;;;;;;;;;;;18.61;63.63;97801.22;4229539;28;5795;-80
2022/10/28 03:48:26;;;;;;;;;;;;;;;18.61;63.46;97803.88;4226230;28;5823;-79
2022/10/28 03:50:28;;;;;;;;;;;;;;;18.61;63.60;97806.56;4230564;28;5891;-79
2022/10/28 03:52:31;;;;;;;;;;;;;;;18.59;63.29;97802.47;4228561;28;5899;-79
2022/10/28 03:54:34;;;;;;;;;;;;;;;18.60;63.44;97802.25;4225359;28;5686;-79
2022/10/28 03:56:39;;;;;;;;;;;;;;;18.60;63.33;97801.44;4221444;28;5746;-79
2022/10/28 03:58:42;;;;;;;;;;;;;;;18.60;63.63;97799.56;4230287;28;5750;-79
2022/10/28 04:00:45;;;;;;;;;;;;;;;18.59;63.41;97797.94;4224640;28;5664;-79
2022/10/28 04:02:49;;;;;;;;;;;;;;;18.61;63.67;97789.69;4220487;28;5528;-80
2022/10/28 04:04:53;;;;;;;;;;;;;;;18.60;63.23;97791.53;4224964;28;7663;-79
2022/10/28 04:06:55;;;;;;;;;;;;;;;18.63;63.59;97800.97;4229694;28;5775;-78
2022/10/28 04:08:58;;;;;;;;;;;;;;;18.61;63.51;97801.22;4216279;28;5774;-78
2022/10/28 04:11:01;;;;;;;;;;;;;;;18.61;63.62;97803.88;4230497;28;5616;-78
2022/10/28 04:13:16;;;;;;;;;;;;;;;18.61;63.59;97806.56;4222085;28;5878;-78
2022/10/28 04:15:19;;;;;;;;;;;;;;;18.60;63.31;97804.94;4233188;28;5687;-79
2022/10/28 04:17:22;;;;;;;;;;;;;;;18.60;63.75;97804.13;4233462;28;5708;-77
2022/10/28 04:19:25;;;;;;;;;;;;;;;18.60;63.70;97793.41;4232750;28;5592;-78
2022/10/28 04:21:28;;;;;;;;;;;;;;;18.60;63.54;97796.91;4235124;28;5617;-77
2022/10/28 04:23:31;;;;;;;;;;;;;;;18.60;63.75;97796.06;4230303;28;5711;-77
2022/10/28 04:25:33;;;;;;;;;;;;;;;18.60;63.54;97798.75;4226159;28;5639;-76
2022/10/28 04:27:36;;;;;;;;;;;;;;;18.60;63.67;97793.41;4225995;28;5781;-75
2022/10/28 04:29:40;;;;;;;;;;;;;;;18.59;63.74;97799.81;4230444;27;5723;-76
2022/10/28 04:31:43;;;;;;;;;;;;;;;18.60;63.56;97807.59;4220582;28;5671;-76
2022/10/28 04:33:53;;;;;;;;;;;;;;;18.61;63.97;97811.09;4227501;28;5649;-75
2022/10/28 04:35:56;;;;;;;;;;;;;;;18.58;63.88;97807.00;4216017;28;5754;-77
2022/10/28 04:37:58;;;;;;;;;;;;;;;18.59;63.65;97810.50;4223337;28;5699;-77
2022/10/28 04:40:01;;;;;;;;;;;;;;;18.58;63.67;97812.38;4229259;28;5676;-77
2022/10/28 04:42:04;;;;;;;;;;;;;;;18.58;64.05;97795.47;4225234;28;5806;-77
2022/10/28 04:44:07;;;;;;;;;;;;;;;18.57;63.72;97793.81;4227370;28;5656;-75
2022/10/28 04:46:11;;;;;;;;;;;;;;;18.57;63.69;97807.22;4223513;28;5601;-77
2022/10/28 04:48:14;;;;;;;;;;;;;;;18.57;63.76;97805.38;4227888;28;5624;-78
2022/10/28 04:50:17;;;;;;;;;;;;;;;18.56;63.85;97801.03;4227552;28;6297;-78
2022/10/28 04:52:21;;;;;;;;;;;;;;;18.56;63.86;97806.38;4218794;28;5608;-77
2022/10/28 04:54:26;;;;;;;;;;;;;;;18.55;64.07;97811.97;4223460;28;5728;-78
2022/10/28 04:56:29;;;;;;;;;;;;;;;18.55;63.77;97809.28;4223943;28;5624;-78
2022/10/28 04:58:32;;;;;;;;;;;;;;;18.55;63.79;97811.97;4221863;28;5727;-78
2022/10/28 05:00:35;;;;;;;;;;;;;;;18.54;64.02;97813.81;4224913;28;5715;-76
2022/10/28 05:02:39;;;;;;;;;;;;;;;18.54;64.01;97819.19;4233414;28;5762;-76
2022/10/28 05:04:47;;;;;;;;;;;;;;;18.54;63.82;97813.00;4229619;27;7655;-76
2022/10/28 05:06:50;;;;;;;;;;;;;;;18.54;64.06;97819.19;4230946;28;5700;-76
2022/10/28 05:08:53;;;;;;;;;;;;;;;18.56;64.00;97822.44;4223238;28;5608;-76
2022/10/28 05:10:56;;;;;;;;;;;;;;;18.55;64.15;97818.13;4231784;28;5932;-76
2022/10/28 05:12:59;;;;;;;;;;;;;;;18.54;64.21;97821.03;4225117;28;5822;-76
2022/10/28 05:15:02;;;;;;;;;;;;;;;18.54;64.19;97804.97;4223859;28;5892;-76
2022/10/28 05:17:05;;;;;;;;;;;;;;;18.55;64.25;97799.41;4220136;28;5615;-77
2022/10/28 05:19:09;;;;;;;;;;;;;;;18.55;64.15;97798.56;4228500;28;5620;-77
2022/10/28 05:21:12;;;;;;;;;;;;;;;18.55;64.37;97796.72;4230656;27;5578;-77
2022/10/28 05:23:14;;;;;;;;;;;;;;;18.56;64.27;97797.53;4225523;27;5792;-76
2022/10/28 05:25:18;;;;;;;;;;;;;;;18.53;64.50;97789.94;4228045;28;5648;-77
2022/10/28 05:27:20;;;;;;;;;;;;;;;18.54;64.27;97781.69;4230081;28;5694;-76
2022/10/28 05:29:23;;;;;;;;;;;;;;;18.55;64.43;97779.84;4219813;28;5742;-77
2022/10/28 05:31:26;;;;;;;;;;;;;;;18.56;64.40;97787.66;4222594;28;5605;-76
2022/10/28 05:33:28;;;;;;;;;;;;;;;18.55;64.47;97796.72;4208701;28;5829;-76
2022/10/28 05:35:33;;;;;;;;;;;;;;;18.55;64.66;97787.88;4230039;28;5593;-76
2022/10/28 05:37:36;;;;;;;;;;;;;;;18.53;64.40;97792.63;4225009;28;5764;-75
2022/10/28 05:39:38;;;;;;;;;;;;;;;18.53;64.49;97793.44;4209886;28;5882;-76
2022/10/28 05:41:41;;;;;;;;;;;;;;;18.55;64.53;97799.41;4221109;28;5824;-77
2022/10/28 05:43:44;;;;;;;;;;;;;;;18.52;64.75;97794.50;4232772;28;5680;-76
2022/10/28 05:45:52;;;;;;;;;;;;;;;18.52;64.59;97791.81;4227355;28;5597;-77
2022/10/28 05:47:55;;;;;;;;;;;;;;;18.51;64.64;97790.16;4222463;28;5597;-77
2022/10/28 05:50:00;;;;;;;;;;;;;;;18.53;64.67;97788.09;4219950;28;5623;-77
2022/10/28 05:52:05;;;;;;;;;;;;;;;18.54;64.65;97789.72;4234013;28;5594;-77
2022/10/28 05:54:08;;;;;;;;;;;;;;;18.54;64.81;97789.72;4225733;28;5623;-77
2022/10/28 05:56:13;;;;;;;;;;;;;;;18.52;64.72;97794.50;4229655;28;5684;-77
2022/10/28 05:58:16;;;;;;;;;;;;;;;18.54;64.64;97799.63;4233859;28;5598;-76
2022/10/28 06:00:21;;;;;;;;;;;;;;;18.54;64.89;97795.09;4225132;28;5609;-77
2022/10/28 06:02:23;;;;;;;;;;;;;;;18.54;64.87;97797.75;4232973;28;5630;-77
2022/10/28 06:04:26;;;;;;;;;;;;;;;18.55;64.93;97793.22;4234378;28;5617;-76
2022/10/28 06:06:29;;;;;;;;;;;;;;;18.56;64.69;97797.53;4228916;28;5840;-77
2022/10/28 06:08:33;;;;;;;;;;;;;;;18.57;64.92;97800.03;4229583;28;5767;-77
2022/10/28 06:10:36;;;;;;;;;;;;;;;18.56;64.74;97800.22;4222955;28;5755;-77
2022/10/28 06:12:39;;;;;;;;;;;;;;;18.55;64.95;97803.94;4229297;28;5790;-76
2022/10/28 06:14:42;;;;;;;;;;;;;;;18.54;64.86;97805.78;4229399;28;5849;-76
2022/10/28 06:16:46;;;;;;;;;;;;;;;18.54;65.02;97811.16;4230402;28;7747;-77
2022/10/28 06:18:49;;;;;;;;;;;;;;;18.54;64.99;97815.69;4225884;28;5616;-77
2022/10/28 06:20:54;;;;;;;;;;;;;;;18.54;64.95;97807.66;4224483;28;5612;-77
2022/10/28 06:22:59;;;;;;;;;;;;;;;18.53;64.96;97814.88;4221181;28;5619;-77
2022/10/28 06:25:04;;;;;;;;;;;;;;;18.54;64.85;97819.19;4229101;28;5810;-76
2022/10/28 06:27:07;;;;;;;;;;;;;;;18.54;64.87;97815.69;4226484;28;5672;-76
2022/10/28 06:29:10;;;;;;;;;;;;;;;18.55;64.83;97806.59;4231055;28;5597;-76
2022/10/28 06:31:14;;;;;;;;;;;;;;;18.54;65.02;97805.78;4228920;28;5684;-76
2022/10/28 06:33:17;;;;;;;;;;;;;;;18.54;64.80;97802.28;4224003;28;5600;-75
2022/10/28 06:35:20;;;;;;;;;;;;;;;18.54;64.94;97805.78;4224600;28;5602;-77
2022/10/28 06:37:23;;;;;;;;;;;;;;;18.53;64.83;97811.38;4231524;28;5776;-76
2022/10/28 06:39:26;;;;;;;;;;;;;;;18.53;65.26;97820.22;4224014;28;5619;-76
2022/10/28 06:41:31;;;;;;;;;;;;;;;18.51;65.06;97822.31;4225631;28;5723;-76
2022/10/28 06:43:33;;;;;;;;;;;;;;;18.53;64.95;97830.94;4224922;28;5726;-76
2022/10/28 06:45:36;;;;;;;;;;;;;;;18.52;65.12;97834.66;4227556;28;6495;-76
2022/10/28 06:47:39;;;;;;;;;;;;;;;18.51;65.39;97842.91;4224408;28;5612;-76
2022/10/28 06:49:43;;;;;;;;;;;;;;;18.52;65.12;97840.00;4226573;28;5581;-76
2022/10/28 06:51:46;;;;;;;;;;;;;;;18.50;65.18;97830.56;4226099;28;5747;-76
2022/10/28 06:53:49;;;;;;;;;;;;;;;18.50;65.11;97836.72;4229510;28;5924;-77
2022/10/28 06:55:52;;;;;;;;;;;;;;;18.50;65.07;97846.63;4226902;28;5593;-76
2022/10/28 06:58:01;;;;;;;;;;;;;;;18.48;65.28;97846.84;4226879;28;5605;-77
2022/10/28 07:00:05;;;;;;;;;;;;;;;18.46;65.21;97843.56;4225735;28;5823;-76
2022/10/28 07:02:10;;;;;;;;;;;;;;;18.47;65.23;97850.56;4229529;28;5607;-77
2022/10/28 07:04:13;;;;;;;;;;;;;;;18.46;65.36;97851.59;4233102;28;5593;-77
2022/10/28 07:06:17;;;;;;;;;;;;;;;18.47;65.28;97858.59;4206394;28;5831;-77
2022/10/28 07:08:20;;;;;;;;;;;;;;;18.48;65.30;97854.88;4227265;28;5611;-77
2022/10/28 07:10:22;;;;;;;;;;;;;;;18.48;65.24;97857.56;4224524;28;5613;-77
2022/10/28 07:12:26;;;;;;;;;;;;;;;18.48;65.13;97852.19;4232200;28;5620;-77
2022/10/28 07:14:30;;;;;;;;;;;;;;;18.47;65.38;97857.78;4232327;28;5664;-77
2022/10/28 07:16:34;;;;;;;;;;;;;;;18.49;65.12;97853.03;4233091;28;5628;-78
2022/10/28 07:18:36;;;;;;;;;;;;;;;18.49;65.37;97867.22;4231632;28;5143;-73
2022/10/28 07:20:39;;;;;;;;;;;;;;;18.48;65.37;97865.59;4229888;28;5675;-73
2022/10/28 07:22:42;;;;;;;;;;;;;;;18.48;65.39;97868.28;4228367;28;5613;-73
2022/10/28 07:24:45;;;;;;;;;;;;;;;18.46;65.28;97877.53;4227101;28;5144;-73
2022/10/28 07:26:48;;;;;;;;;;;;;;;18.46;65.43;97881.06;4228359;28;5725;-73
2022/10/28 07:28:56;;;;;;;;;;;;;;;18.46;65.44;97894.44;4224836;28;6018;-73
2022/10/28 07:31:01;;;;;;;;;;;;;;;18.44;65.24;97880.44;4221749;28;5647;-73
2022/10/28 07:33:04;;;;;;;;;;;;;;;18.45;65.46;97892.78;4219474;28;5793;-72
2022/10/28 07:35:08;;;;;;;;;;;;;;;18.45;65.40;97900.00;4231035;28;5642;-73
2022/10/28 07:37:11;;;;;;;;;;;;;;;18.45;65.30;97892.78;4230289;28;5623;-73
2022/10/28 07:39:14;;;;;;;;;;;;;;;18.44;65.14;97891.13;4224897;28;6204;-73
2022/10/28 07:41:19;;;;;;;;;;;;;;;18.45;65.47;97891.97;4227993;28;5646;-73
2022/10/28 07:43:21;;;;;;;;;;;;;;;18.43;65.36;97891.34;4222973;28;5821;-74
2022/10/28 07:45:24;;;;;;;;;;;;;;;18.41;65.13;97880.88;4229540;28;5646;-73
2022/10/28 07:47:29;;;;;;;;;;;;;;;18.42;65.41;97879.81;4220972;28;5667;-73
2022/10/28 07:49:31;;;;;;;;;;;;;;;18.43;65.16;97872.63;4229985;28;5646;-73
2022/10/28 07:51:34;;;;;;;;;;;;;;;18.45;65.03;97876.72;4226307;28;5686;-73
2022/10/28 07:53:37;;;;;;;;;;;;;;;18.48;65.02;97886.19;4233610;28;5849;-73
2022/10/28 07:55:40;;;;;;;;;;;;;;;18.48;64.99;97886.19;4236638;28;6448;-73
2022/10/28 07:57:43;;;;;;;;;;;;;;;18.49;65.23;97877.94;4234049;28;5764;-73
2022/10/28 07:59:46;;;;;;;;;;;;;;;18.51;64.94;97875.84;4236522;28;5662;-73
2022/10/28 08:01:49;;;;;;;;;;;;;;;18.50;64.83;97863.50;4224593;28;6401;-73
2022/10/28 08:03:53;;;;;;;;;;;;;;;18.52;65.08;97876.69;4228293;28;5788;-73
2022/10/28 08:06:00;;;;;;;;;;;;;;;18.49;64.91;97896.69;4230126;28;5740;-73
2022/10/28 08:08:03;;;;;;;;;;;;;;;18.46;65.13;97890.91;4231599;28;5635;-74
2022/10/28 08:10:07;;;;;;;;;;;;;;;18.47;64.97;97876.53;4229506;28;5715;-74
2022/10/28 08:12:13;;;;;;;;;;;;;;;18.50;64.96;97874.22;4228628;28;5812;-74
2022/10/28 08:14:19;;;;;;;;;;;;;;;18.48;65.27;97870.94;4222044;28;5652;-73
2022/10/28 08:16:22;;;;;;;;;;;;;;;18.48;65.14;97864.78;4232373;27;5647;-73
2022/10/28 08:18:25;;;;;;;;;;;;;;;18.52;65.23;97860.59;4226431;27;5799;-73
2022/10/28 08:20:29;;;;;;;;;;;;;;;18.54;65.14;97867.38;4223106;28;5659;-74
2022/10/28 08:22:32;;;;;;;;;;;;;;;18.56;65.05;97873.34;4227845;28;5658;-74
2022/10/28 08:24:35;;;;;;;;;;;;;;;18.55;65.16;97871.69;4225543;28;5663;-73
2022/10/28 08:26:38;;;;;;;;;;;;;;;18.57;65.03;97885.72;4225546;28;5808;-73
2022/10/28 08:28:41;;;;;;;;;;;;;;;18.56;65.19;97896.63;4228352;28;5857;-73
2022/10/28 08:30:44;;;;;;;;;;;;;;;18.52;65.17;97895.41;4234436;28;5731;-73
2022/10/28 08:33:06;;;;;;;;;;;;;;;18.55;65.28;97905.69;4225281;28;5702;-73
2022/10/28 08:35:09;;;;;;;;;;;;;;;18.53;65.45;97905.09;4232614;27;5656;-73
2022/10/28 08:37:14;;;;;;;;;;;;;;;18.53;65.44;97903.22;4225281;28;5642;-73
2022/10/28 08:39:17;;;;;;;;;;;;;;;18.53;65.31;97900.56;4218580;28;5695;-73
2022/10/28 08:41:30;;;;;;;;;;;;;;;18.49;65.62;97893.19;4225928;28;5654;-73
2022/10/28 08:43:46;;;;;;;;;;;;;;;18.53;65.50;97899.75;4233697;28;5821;-73
2022/10/28 08:46:04;;;;;;;;;;;;;;;18.54;65.25;97906.72;4219514;28;5635;-73
2022/10/28 08:48:18;;;;;;;;;;;;;;;18.55;65.36;97903.84;4232255;28;5689;-73
2022/10/28 08:50:24;;;;;;;;;;;;;;;18.54;65.42;97893.34;4222014;28;5752;-73
2022/10/28 08:52:35;;;;;;;;;;;;;;;18.57;65.67;97890.22;4221589;28;5678;-73
2022/10/28 08:54:46;;;;;;;;;;;;;;;18.57;65.53;97883.03;4227398;28;6728;-73
2022/10/28 08:56:53;;;;;;;;;;;;;;;18.58;65.77;97883.84;4223227;28;5726;-74
2022/10/28 08:59:00;;;;;;;;;;;;;;;18.59;65.42;97888.16;4221236;28;5797;-73
2022/10/28 09:01:06;;;;;;;;;;;;;;;18.61;65.53;97883.41;4233578;28;6353;-73
2022/10/28 09:03:19;;;;;;;;;;;;;;;18.61;65.58;97881.56;4226399;28;5725;-74
2022/10/28 09:05:25;;;;;;;;;;;;;;;18.61;65.66;97894.94;4222743;28;5660;-73
2022/10/28 09:07:28;;;;;;;;;;;;;;;18.63;65.52;97895.53;4229359;28;5664;-73
2022/10/28 09:09:33;;;;;;;;;;;;;;;18.63;65.72;97878.66;4224163;28;6583;-73
2022/10/28 09:11:56;;;;;;;;;;;;;;;18.61;65.82;97876.19;4217973;28;5854;-73
2022/10/28 09:14:15;;;;;;;;;;;;;;;18.58;65.93;97887.34;4221436;28;5766;-74
2022/10/28 09:16:29;;;;;;;;;;;;;;;18.59;65.56;97886.31;4228492;28;5673;-74
2022/10/28 09:18:51;;;;;;;;;;;;;;;18.57;65.92;97885.72;4220385;28;5777;-73
2022/10/28 09:20:54;;;;;;;;;;;;;;;18.59;65.84;97898.88;4218005;28;5769;-73
2022/10/28 09:22:59;;;;;;;;;;;;;;;18.59;65.74;97907.72;4221482;28;6830;-73
2022/10/28 09:25:13;;;;;;;;;;;;;;;18.61;65.89;97908.34;4230372;28;5072;-74
2022/10/28 09:27:29;;;;;;;;;;;;;;;18.64;65.74;97904.44;4229036;28;5650;-73
2022/10/28 09:29:42;;;;;;;;;;;;;;;18.63;65.84;97895.53;4221306;28;5776;-73
2022/10/28 09:31:49;;;;;;;;;;;;;;;18.63;65.95;97892.88;4228389;28;5658;-74
2022/10/28 09:34:05;;;;;;;;;;;;;;;18.65;66.01;97902.56;4222445;28;6368;-74
2022/10/28 09:36:14;;;;;;;;;;;;;;;18.62;65.98;97893.91;4218780;28;6450;-73
2022/10/28 09:38:25;;;;;;;;;;;;;;;18.61;66.22;97897.63;4223934;28;5841;-73
2022/10/28 09:40:33;;;;;;;;;;;;;;;18.63;66.33;97895.53;4217359;28;5688;-73
2022/10/28 09:42:44;;;;;;;;;;;;;;;18.65;65.97;97897.22;4217072;28;5860;-73
2022/10/28 09:44:52;;;;;;;;;;;;;;;18.65;66.26;97895.34;4221860;28;5805;-73
2022/10/28 09:46:59;;;;;;;;;;;;;;;18.66;66.15;97902.34;4227437;28;5663;-73
2022/10/28 09:49:05;;;;;;;;;;;;;;;18.69;66.17;97901.09;4222519;28;5960;-73
2022/10/28 09:51:21;;;;;;;;;;;;;;;18.70;66.27;97889.34;4224722;28;5660;-73
2022/10/28 09:53:32;;;;;;;;;;;;;;;18.72;66.05;97895.31;4219044;28;5731;-73
2022/10/28 09:55:39;;;;;;;;;;;;;;;18.74;66.32;97890.56;4225412;28;5887;-74
2022/10/28 09:57:43;;;;;;;;;;;;;;;18.76;66.29;97888.47;4229209;28;5717;-74
2022/10/28 09:59:46;;;;;;;;;;;;;;;18.77;66.44;97890.09;4230705;27;5847;-74
2022/10/28 10:01:49;;;;;;;;;;;;;;;18.76;66.45;97901.88;4223322;28;5646;-74
2022/10/28 10:03:52;;;;;;;;;;;;;;;18.76;66.41;97896.50;4224469;28;5646;-73
2022/10/28 10:05:58;;;;;;;;;;;;;;;18.74;66.32;97901.28;4234430;28;5639;-73
2022/10/28 10:08:03;;;;;;;;;;;;;;;18.77;66.46;97900.81;4233806;28;5903;-73
2022/10/28 10:10:12;;;;;;;;;;;;;;;18.78;66.46;97908.63;4233633;28;5176;-74
2022/10/28 10:12:16;;;;;;;;;;;;;;;18.78;66.51;97907.81;4234475;27;5835;-73
2022/10/28 10:14:25;;;;;;;;;;;;;;;18.77;66.75;97908.84;4226355;28;5720;-74
2022/10/28 10:16:38;;;;;;;;;;;;;;;18.80;66.66;97905.72;4234122;28;5747;-73
2022/10/28 10:18:47;;;;;;;;;;;;;;;18.82;66.51;97906.38;4231208;28;5647;-73
2022/10/28 10:20:51;;;;;;;;;;;;;;;18.82;66.42;97903.69;4226596;28;5101;-73
2022/10/28 10:22:54;;;;;;;;;;;;;;;18.78;66.78;97897.09;4226235;28;5080;-73
2022/10/28 10:24:57;;;;;;;;;;;;;;;18.78;66.73;97897.09;4229823;28;5751;-74
2022/10/28 10:27:03;;;;;;;;;;;;;;;18.80;66.88;97890.50;4227314;28;5770;-73
2022/10/28 10:29:12;;;;;;;;;;;;;;;18.80;66.80;97887.84;4224002;28;5774;-73
2022/10/28 10:31:19;;;;;;;;;;;;;;;18.85;66.66;97876.44;4233718;28;5741;-73
2022/10/28 10:33:25;;;;;;;;;;;;;;;18.87;66.70;97879.72;4224079;28;5647;-73
2022/10/28 10:35:30;;;;;;;;;;;;;;;18.89;66.79;97874.97;4228731;28;6386;-73
2022/10/28 10:37:35;;;;;;;;;;;;;;;18.91;66.39;97875.56;4223458;28;5655;-73
2022/10/28 10:39:38;;;;;;;;;;;;;;;18.92;66.55;97879.91;4228585;28;5651;-73
2022/10/28 10:41:43;;;;;;;;;;;;;;;18.93;66.70;97881.53;4233837;28;5804;-74
2022/10/28 10:43:46;;;;;;;;;;;;;;;18.97;66.61;97879.22;4233671;28;5646;-74
2022/10/28 10:46:02;;;;;;;;;;;;;;;18.98;66.52;97870.97;4227696;28;5679;-74
2022/10/28 10:48:13;;;;;;;;;;;;;;;18.99;66.38;97875.28;4234075;28;6129;-73
2022/10/28 10:50:28;;;;;;;;;;;;;;;19.01;66.56;97881.22;4234152;28;5757;-73
2022/10/28 10:52:31;;;;;;;;;;;;;;;19.01;66.61;97873.19;4232381;28;5605;-73
2022/10/28 10:54:37;;;;;;;;;;;;;;;19.03;66.57;97868.47;4233409;28;5670;-74
2022/10/28 10:56:40;;;;;;;;;;;;;;;19.04;66.43;97859.38;4230637;28;6360;-74
2022/10/28 10:58:51;;;;;;;;;;;;;;;19.05;66.60;97861.00;4229078;28;5639;-74
2022/10/28 11:00:57;;;;;;;;;;;;;;;19.07;66.33;97858.09;4233887;28;5737;-73
2022/10/28 11:03:01;;;;;;;;;;;;;;;19.07;66.57;97864.28;4233290;28;5635;-73
2022/10/28 11:05:08;;;;;;;;;;;;;;;19.09;66.47;97867.56;4232143;28;5792;-73